sensor_id;sensor_type;location;lat;lon;timestamp;P1;durP1;ratioP1;P2;durP2;ratioP2
23088;SDS011;11713;48.506;8.966;2022-12-15T00:05:41;34.80;;;20.27;;
23088;SDS011;11713;48.506;8.966;2022-12-15T00:08:25;34.80;;;20.73;;
23088;SDS011;11713;48.506;8.966;2022-12-15T00:11:15;33.30;;;21.03;;
23088;SDS011;11713;48.506;8.966;2022-12-15T00:13:59;34.03;;;21.10;;
23088;SDS011;11713;48.506;8.966;2022-12-15T00:16:43;34.23;;;21.43;;
23088;SDS011;11713;48.506;8.966;2022-12-15T00:19:27;33.17;;;20.13;;
23088;SDS011;11713;48.506;8.966;2022-12-15T00:22:11;34.50;;;20.60;;
23088;SDS011;11713;48.506;8.966;2022-12-15T00:24:56;32.43;;;20.23;;
23088;SDS011;11713;48.506;8.966;2022-12-15T00:27:40;34.53;;;20.90;;
23088;SDS011;11713;48.506;8.966;2022-12-15T00:30:37;36.20;;;21.20;;
23088;SDS011;11713;48.506;8.966;2022-12-15T00:33:21;31.13;;;18.93;;
23088;SDS011;11713;48.506;8.966;2022-12-15T00:36:06;34.03;;;20.70;;
23088;SDS011;11713;48.506;8.966;2022-12-15T00:38:51;33.93;;;20.47;;
23088;SDS011;11713;48.506;8.966;2022-12-15T00:41:22;33.00;;;20.77;;
23088;SDS011;11713;48.506;8.966;2022-12-15T00:43:48;34.43;;;21.27;;
23088;SDS011;11713;48.506;8.966;2022-12-15T00:46:14;35.97;;;21.63;;
23088;SDS011;11713;48.506;8.966;2022-12-15T00:48:58;35.43;;;20.63;;
23088;SDS011;11713;48.506;8.966;2022-12-15T00:51:33;33.97;;;21.63;;
23088;SDS011;11713;48.506;8.966;2022-12-15T00:54:18;33.57;;;20.30;;
23088;SDS011;11713;48.506;8.966;2022-12-15T00:57:02;33.30;;;20.90;;
23088;SDS011;11713;48.506;8.966;2022-12-15T00:59:47;34.93;;;21.90;;
23088;SDS011;11713;48.506;8.966;2022-12-15T01:02:31;30.60;;;19.37;;
23088;SDS011;11713;48.506;8.966;2022-12-15T01:05:16;33.53;;;20.57;;
23088;SDS011;11713;48.506;8.966;2022-12-15T01:08:00;33.40;;;20.33;;
23088;SDS011;11713;48.506;8.966;2022-12-15T01:10:44;37.03;;;22.10;;
23088;SDS011;11713;48.506;8.966;2022-12-15T01:13:29;34.40;;;20.23;;
23088;SDS011;11713;48.506;8.966;2022-12-15T01:16:13;36.37;;;21.53;;
23088;SDS011;11713;48.506;8.966;2022-12-15T01:18:58;39.13;;;23.20;;
23088;SDS011;11713;48.506;8.966;2022-12-15T01:21:42;34.20;;;21.43;;
23088;SDS011;11713;48.506;8.966;2022-12-15T01:24:08;34.17;;;21.03;;
23088;SDS011;11713;48.506;8.966;2022-12-15T01:26:34;35.50;;;20.73;;
23088;SDS011;11713;48.506;8.966;2022-12-15T01:29:00;29.90;;;19.67;;
23088;SDS011;11713;48.506;8.966;2022-12-15T01:31:26;32.23;;;19.43;;
23088;SDS011;11713;48.506;8.966;2022-12-15T01:33:52;31.67;;;20.27;;
23088;SDS011;11713;48.506;8.966;2022-12-15T01:36:19;33.97;;;21.10;;
23088;SDS011;11713;48.506;8.966;2022-12-15T01:38:45;36.37;;;20.70;;
23088;SDS011;11713;48.506;8.966;2022-12-15T01:41:11;35.77;;;21.50;;
23088;SDS011;11713;48.506;8.966;2022-12-15T01:43:38;35.53;;;21.47;;
23088;SDS011;11713;48.506;8.966;2022-12-15T01:48:48;34.53;;;20.47;;
23088;SDS011;11713;48.506;8.966;2022-12-15T01:53:48;35.30;;;21.03;;
23088;SDS011;11713;48.506;8.966;2022-12-15T01:56:16;33.00;;;20.10;;
23088;SDS011;11713;48.506;8.966;2022-12-15T01:58:42;32.60;;;20.03;;
23088;SDS011;11713;48.506;8.966;2022-12-15T02:01:12;35.50;;;21.60;;
23088;SDS011;11713;48.506;8.966;2022-12-15T02:03:38;34.50;;;21.43;;
23088;SDS011;11713;48.506;8.966;2022-12-15T02:06:12;37.03;;;20.87;;
23088;SDS011;11713;48.506;8.966;2022-12-15T02:08:39;35.60;;;21.80;;
23088;SDS011;11713;48.506;8.966;2022-12-15T02:16:23;38.13;;;23.33;;
23088;SDS011;11713;48.506;8.966;2022-12-15T02:33:43;33.77;;;21.23;;
23088;SDS011;11713;48.506;8.966;2022-12-15T02:38:53;32.97;;;19.43;;
23088;SDS011;11713;48.506;8.966;2022-12-15T02:44:11;35.70;;;20.87;;
23088;SDS011;11713;48.506;8.966;2022-12-15T02:52:19;33.50;;;20.27;;
23088;SDS011;11713;48.506;8.966;2022-12-15T02:58:15;31.20;;;20.17;;
23088;SDS011;11713;48.506;8.966;2022-12-15T03:00:49;31.93;;;20.00;;
23088;SDS011;11713;48.506;8.966;2022-12-15T03:03:22;35.17;;;20.67;;
23088;SDS011;11713;48.506;8.966;2022-12-15T03:05:49;34.47;;;20.90;;
23088;SDS011;11713;48.506;8.966;2022-12-15T03:08:19;33.93;;;20.40;;
23088;SDS011;11713;48.506;8.966;2022-12-15T03:10:46;34.97;;;20.50;;
23088;SDS011;11713;48.506;8.966;2022-12-15T03:13:14;37.00;;;21.67;;
23088;SDS011;11713;48.506;8.966;2022-12-15T03:15:40;33.07;;;20.23;;
23088;SDS011;11713;48.506;8.966;2022-12-15T03:18:06;33.43;;;21.27;;
23088;SDS011;11713;48.506;8.966;2022-12-15T03:20:31;36.40;;;20.97;;
23088;SDS011;11713;48.506;8.966;2022-12-15T03:22:57;34.30;;;20.77;;
23088;SDS011;11713;48.506;8.966;2022-12-15T03:25:23;37.97;;;21.03;;
23088;SDS011;11713;48.506;8.966;2022-12-15T03:27:49;33.43;;;20.70;;
23088;SDS011;11713;48.506;8.966;2022-12-15T03:30:16;35.43;;;21.67;;
23088;SDS011;11713;48.506;8.966;2022-12-15T03:32:41;32.47;;;21.17;;
23088;SDS011;11713;48.506;8.966;2022-12-15T03:35:07;36.07;;;21.20;;
23088;SDS011;11713;48.506;8.966;2022-12-15T03:37:33;33.73;;;20.63;;
23088;SDS011;11713;48.506;8.966;2022-12-15T03:39:59;31.93;;;19.37;;
23088;SDS011;11713;48.506;8.966;2022-12-15T03:42:25;33.47;;;19.57;;
23088;SDS011;11713;48.506;8.966;2022-12-15T03:45:09;34.77;;;19.83;;
23088;SDS011;11713;48.506;8.966;2022-12-15T03:47:39;33.23;;;20.07;;
23088;SDS011;11713;48.506;8.966;2022-12-15T03:50:06;33.60;;;20.23;;
23088;SDS011;11713;48.506;8.966;2022-12-15T03:52:33;32.67;;;20.40;;
23088;SDS011;11713;48.506;8.966;2022-12-15T03:55:00;33.33;;;20.93;;
23088;SDS011;11713;48.506;8.966;2022-12-15T03:57:26;33.03;;;20.27;;
23088;SDS011;11713;48.506;8.966;2022-12-15T03:59:52;32.57;;;20.23;;
23088;SDS011;11713;48.506;8.966;2022-12-15T04:20:41;29.37;;;18.03;;
23088;SDS011;11713;48.506;8.966;2022-12-15T04:26:55;31.90;;;18.33;;
23088;SDS011;11713;48.506;8.966;2022-12-15T04:29:52;32.27;;;19.10;;
23088;SDS011;11713;48.506;8.966;2022-12-15T04:32:36;32.83;;;19.33;;
23088;SDS011;11713;48.506;8.966;2022-12-15T04:35:20;31.03;;;18.80;;
23088;SDS011;11713;48.506;8.966;2022-12-15T04:38:04;32.00;;;19.30;;
23088;SDS011;11713;48.506;8.966;2022-12-15T04:40:50;31.23;;;18.67;;
23088;SDS011;11713;48.506;8.966;2022-12-15T04:43:36;28.13;;;18.87;;
23088;SDS011;11713;48.506;8.966;2022-12-15T04:46:31;31.50;;;18.90;;
23088;SDS011;11713;48.506;8.966;2022-12-15T04:55:37;33.17;;;20.37;;
23088;SDS011;11713;48.506;8.966;2022-12-15T04:58:22;30.77;;;19.57;;
23088;SDS011;11713;48.506;8.966;2022-12-15T05:01:06;35.87;;;21.83;;
23088;SDS011;11713;48.506;8.966;2022-12-15T05:03:51;28.77;;;19.50;;
23088;SDS011;11713;48.506;8.966;2022-12-15T05:06:35;35.40;;;21.20;;
23088;SDS011;11713;48.506;8.966;2022-12-15T05:09:20;35.23;;;21.03;;
23088;SDS011;11713;48.506;8.966;2022-12-15T05:12:04;36.00;;;21.70;;
23088;SDS011;11713;48.506;8.966;2022-12-15T05:14:48;37.87;;;22.80;;
23088;SDS011;11713;48.506;8.966;2022-12-15T05:17:39;35.97;;;21.70;;
23088;SDS011;11713;48.506;8.966;2022-12-15T05:20:25;38.43;;;22.27;;
23088;SDS011;11713;48.506;8.966;2022-12-15T05:23:09;37.33;;;22.07;;
23088;SDS011;11713;48.506;8.966;2022-12-15T05:25:53;37.53;;;22.03;;
23088;SDS011;11713;48.506;8.966;2022-12-15T05:28:38;35.00;;;22.17;;
23088;SDS011;11713;48.506;8.966;2022-12-15T05:31:22;37.90;;;22.07;;
23088;SDS011;11713;48.506;8.966;2022-12-15T05:34:06;35.13;;;20.40;;
23088;SDS011;11713;48.506;8.966;2022-12-15T05:36:32;34.03;;;20.83;;
23088;SDS011;11713;48.506;8.966;2022-12-15T05:38:58;37.53;;;23.20;;
23088;SDS011;11713;48.506;8.966;2022-12-15T05:41:24;32.40;;;20.47;;
23088;SDS011;11713;48.506;8.966;2022-12-15T05:43:50;32.80;;;20.77;;
23088;SDS011;11713;48.506;8.966;2022-12-15T05:46:15;35.27;;;20.57;;
23088;SDS011;11713;48.506;8.966;2022-12-15T05:48:41;36.80;;;22.57;;
23088;SDS011;11713;48.506;8.966;2022-12-15T05:51:08;35.90;;;22.37;;
23088;SDS011;11713;48.506;8.966;2022-12-15T05:53:35;36.30;;;23.13;;
23088;SDS011;11713;48.506;8.966;2022-12-15T05:56:04;39.43;;;22.27;;
23088;SDS011;11713;48.506;8.966;2022-12-15T05:58:41;37.90;;;23.77;;
23088;SDS011;11713;48.506;8.966;2022-12-15T06:01:09;38.57;;;22.70;;
23088;SDS011;11713;48.506;8.966;2022-12-15T06:03:51;40.00;;;23.63;;
23088;SDS011;11713;48.506;8.966;2022-12-15T06:06:17;40.80;;;23.10;;
23088;SDS011;11713;48.506;8.966;2022-12-15T06:08:43;41.40;;;24.50;;
23088;SDS011;11713;48.506;8.966;2022-12-15T06:11:10;40.60;;;24.50;;
23088;SDS011;11713;48.506;8.966;2022-12-15T06:13:38;40.60;;;24.80;;
23088;SDS011;11713;48.506;8.966;2022-12-15T06:16:05;41.97;;;24.60;;
23088;SDS011;11713;48.506;8.966;2022-12-15T06:18:35;39.63;;;23.40;;
23088;SDS011;11713;48.506;8.966;2022-12-15T06:21:03;41.07;;;23.57;;
23088;SDS011;11713;48.506;8.966;2022-12-15T06:23:30;36.70;;;22.83;;
23088;SDS011;11713;48.506;8.966;2022-12-15T06:25:59;41.10;;;23.10;;
23088;SDS011;11713;48.506;8.966;2022-12-15T06:28:52;38.80;;;22.83;;
23088;SDS011;11713;48.506;8.966;2022-12-15T06:31:20;39.07;;;22.73;;
23088;SDS011;11713;48.506;8.966;2022-12-15T06:33:47;39.63;;;22.63;;
23088;SDS011;11713;48.506;8.966;2022-12-15T06:36:14;38.77;;;23.20;;
23088;SDS011;11713;48.506;8.966;2022-12-15T06:38:41;41.00;;;23.27;;
23088;SDS011;11713;48.506;8.966;2022-12-15T06:41:08;39.50;;;23.07;;
23088;SDS011;11713;48.506;8.966;2022-12-15T06:43:38;36.20;;;22.37;;
23088;SDS011;11713;48.506;8.966;2022-12-15T06:46:04;41.03;;;24.60;;
23088;SDS011;11713;48.506;8.966;2022-12-15T06:48:30;42.03;;;24.47;;
23088;SDS011;11713;48.506;8.966;2022-12-15T06:51:00;40.83;;;23.67;;
23088;SDS011;11713;48.506;8.966;2022-12-15T06:53:28;40.13;;;24.60;;
23088;SDS011;11713;48.506;8.966;2022-12-15T06:56:01;39.67;;;23.00;;
23088;SDS011;11713;48.506;8.966;2022-12-15T06:58:29;40.80;;;23.37;;
23088;SDS011;11713;48.506;8.966;2022-12-15T07:00:55;42.57;;;23.33;;
23088;SDS011;11713;48.506;8.966;2022-12-15T07:03:22;42.30;;;24.33;;
23088;SDS011;11713;48.506;8.966;2022-12-15T07:05:59;41.63;;;23.67;;
23088;SDS011;11713;48.506;8.966;2022-12-15T07:08:35;41.67;;;23.20;;
23088;SDS011;11713;48.506;8.966;2022-12-15T07:13:50;39.97;;;23.50;;
23088;SDS011;11713;48.506;8.966;2022-12-15T07:16:27;41.67;;;23.77;;
23088;SDS011;11713;48.506;8.966;2022-12-15T07:19:00;38.10;;;21.53;;
23088;SDS011;11713;48.506;8.966;2022-12-15T07:21:26;41.87;;;23.83;;
23088;SDS011;11713;48.506;8.966;2022-12-15T07:23:52;42.13;;;24.20;;
23088;SDS011;11713;48.506;8.966;2022-12-15T07:26:18;38.77;;;22.70;;
23088;SDS011;11713;48.506;8.966;2022-12-15T07:28:44;40.67;;;23.40;;
23088;SDS011;11713;48.506;8.966;2022-12-15T07:31:10;39.30;;;24.40;;
23088;SDS011;11713;48.506;8.966;2022-12-15T07:33:36;39.90;;;23.70;;
23088;SDS011;11713;48.506;8.966;2022-12-15T07:36:03;42.57;;;24.67;;
23088;SDS011;11713;48.506;8.966;2022-12-15T07:38:29;38.13;;;23.40;;
23088;SDS011;11713;48.506;8.966;2022-12-15T07:40:58;39.17;;;22.80;;
23088;SDS011;11713;48.506;8.966;2022-12-15T07:43:26;39.07;;;23.83;;
23088;SDS011;11713;48.506;8.966;2022-12-15T07:45:54;43.83;;;23.80;;
23088;SDS011;11713;48.506;8.966;2022-12-15T07:48:20;40.17;;;23.00;;
23088;SDS011;11713;48.506;8.966;2022-12-15T07:50:46;40.90;;;23.13;;
23088;SDS011;11713;48.506;8.966;2022-12-15T07:53:12;43.03;;;23.50;;
23088;SDS011;11713;48.506;8.966;2022-12-15T07:55:38;37.70;;;22.57;;
23088;SDS011;11713;48.506;8.966;2022-12-15T07:58:03;42.23;;;24.53;;
23088;SDS011;11713;48.506;8.966;2022-12-15T08:00:29;44.13;;;24.47;;
23088;SDS011;11713;48.506;8.966;2022-12-15T08:02:55;43.37;;;25.47;;
23088;SDS011;11713;48.506;8.966;2022-12-15T08:05:21;41.93;;;24.80;;
23088;SDS011;11713;48.506;8.966;2022-12-15T08:07:47;41.47;;;24.00;;
23088;SDS011;11713;48.506;8.966;2022-12-15T08:10:13;36.47;;;22.03;;
23088;SDS011;11713;48.506;8.966;2022-12-15T08:12:44;38.53;;;23.03;;
23088;SDS011;11713;48.506;8.966;2022-12-15T08:15:10;38.47;;;23.37;;
23088;SDS011;11713;48.506;8.966;2022-12-15T08:17:37;39.57;;;23.17;;
23088;SDS011;11713;48.506;8.966;2022-12-15T08:20:04;36.20;;;22.30;;
23088;SDS011;11713;48.506;8.966;2022-12-15T08:22:31;49.53;;;25.57;;
23088;SDS011;11713;48.506;8.966;2022-12-15T08:24:56;45.10;;;24.33;;
23088;SDS011;11713;48.506;8.966;2022-12-15T08:27:22;45.40;;;25.97;;
23088;SDS011;11713;48.506;8.966;2022-12-15T08:29:51;43.43;;;24.80;;
23088;SDS011;11713;48.506;8.966;2022-12-15T08:32:19;40.47;;;24.27;;
23088;SDS011;11713;48.506;8.966;2022-12-15T08:34:45;37.93;;;23.00;;
23088;SDS011;11713;48.506;8.966;2022-12-15T08:37:13;43.50;;;24.90;;
23088;SDS011;11713;48.506;8.966;2022-12-15T08:39:40;42.13;;;24.83;;
23088;SDS011;11713;48.506;8.966;2022-12-15T08:42:06;39.10;;;24.00;;
23088;SDS011;11713;48.506;8.966;2022-12-15T08:44:32;38.27;;;22.43;;
23088;SDS011;11713;48.506;8.966;2022-12-15T08:46:58;40.87;;;22.53;;
23088;SDS011;11713;48.506;8.966;2022-12-15T08:49:24;37.97;;;21.43;;
23088;SDS011;11713;48.506;8.966;2022-12-15T08:51:50;37.57;;;21.50;;
23088;SDS011;11713;48.506;8.966;2022-12-15T08:54:16;35.43;;;22.13;;
23088;SDS011;11713;48.506;8.966;2022-12-15T08:56:43;38.37;;;21.80;;
23088;SDS011;11713;48.506;8.966;2022-12-15T08:59:09;39.07;;;22.80;;
23088;SDS011;11713;48.506;8.966;2022-12-15T09:01:35;39.80;;;23.10;;
23088;SDS011;11713;48.506;8.966;2022-12-15T09:04:04;36.67;;;22.07;;
23088;SDS011;11713;48.506;8.966;2022-12-15T09:06:31;37.60;;;21.70;;
23088;SDS011;11713;48.506;8.966;2022-12-15T09:09:00;31.90;;;20.07;;
23088;SDS011;11713;48.506;8.966;2022-12-15T09:14:27;33.20;;;21.13;;
23088;SDS011;11713;48.506;8.966;2022-12-15T09:16:53;35.47;;;21.27;;
23088;SDS011;11713;48.506;8.966;2022-12-15T09:22:03;33.77;;;21.80;;
23088;SDS011;11713;48.506;8.966;2022-12-15T09:27:27;36.00;;;21.43;;
23088;SDS011;11713;48.506;8.966;2022-12-15T09:29:56;34.43;;;21.00;;
23088;SDS011;11713;48.506;8.966;2022-12-15T09:32:30;33.67;;;21.67;;
23088;SDS011;11713;48.506;8.966;2022-12-15T09:34:56;37.07;;;23.93;;
23088;SDS011;11713;48.506;8.966;2022-12-15T09:37:22;34.27;;;21.13;;
23088;SDS011;11713;48.506;8.966;2022-12-15T09:39:48;32.60;;;21.03;;
23088;SDS011;11713;48.506;8.966;2022-12-15T09:42:21;34.07;;;21.47;;
23088;SDS011;11713;48.506;8.966;2022-12-15T09:45:02;34.67;;;21.13;;
23088;SDS011;11713;48.506;8.966;2022-12-15T09:47:48;32.17;;;20.77;;
23088;SDS011;11713;48.506;8.966;2022-12-15T09:50:36;32.93;;;20.67;;
23088;SDS011;11713;48.506;8.966;2022-12-15T09:53:13;34.47;;;21.97;;
23088;SDS011;11713;48.506;8.966;2022-12-15T09:55:42;36.43;;;22.23;;
23088;SDS011;11713;48.506;8.966;2022-12-15T10:00:55;35.17;;;22.10;;
23088;SDS011;11713;48.506;8.966;2022-12-15T10:06:26;36.80;;;22.23;;
23088;SDS011;11713;48.506;8.966;2022-12-15T10:09:00;36.00;;;21.63;;
23088;SDS011;11713;48.506;8.966;2022-12-15T10:16:49;35.97;;;22.27;;
23088;SDS011;11713;48.506;8.966;2022-12-15T10:25:48;36.17;;;22.83;;
23088;SDS011;11713;48.506;8.966;2022-12-15T10:31:21;38.00;;;22.83;;
23088;SDS011;11713;48.506;8.966;2022-12-15T10:34:09;35.13;;;22.37;;
23088;SDS011;11713;48.506;8.966;2022-12-15T10:36:43;35.37;;;21.33;;
23088;SDS011;11713;48.506;8.966;2022-12-15T10:39:15;35.13;;;22.40;;
23088;SDS011;11713;48.506;8.966;2022-12-15T10:41:41;36.83;;;21.93;;
23088;SDS011;11713;48.506;8.966;2022-12-15T10:44:20;32.30;;;20.97;;
23088;SDS011;11713;48.506;8.966;2022-12-15T10:46:55;33.43;;;21.77;;
23088;SDS011;11713;48.506;8.966;2022-12-15T10:49:22;34.93;;;21.97;;
23088;SDS011;11713;48.506;8.966;2022-12-15T10:51:53;34.50;;;21.70;;
23088;SDS011;11713;48.506;8.966;2022-12-15T10:54:34;36.83;;;22.50;;
23088;SDS011;11713;48.506;8.966;2022-12-15T10:57:22;35.83;;;22.77;;
23088;SDS011;11713;48.506;8.966;2022-12-15T11:00:38;38.50;;;22.23;;
23088;SDS011;11713;48.506;8.966;2022-12-15T11:02:46;36.30;;;22.80;;
23088;SDS011;11713;48.506;8.966;2022-12-15T11:05:15;37.93;;;22.43;;
23088;SDS011;11713;48.506;8.966;2022-12-15T11:07:46;36.40;;;23.20;;
23088;SDS011;11713;48.506;8.966;2022-12-15T11:10:21;40.53;;;24.13;;
23088;SDS011;11713;48.506;8.966;2022-12-15T11:12:59;40.60;;;23.20;;
23088;SDS011;11713;48.506;8.966;2022-12-15T11:18:13;38.27;;;23.57;;
23088;SDS011;11713;48.506;8.966;2022-12-15T11:21:21;38.47;;;23.97;;
23088;SDS011;11713;48.506;8.966;2022-12-15T11:24:17;35.73;;;21.80;;
23088;SDS011;11713;48.506;8.966;2022-12-15T11:32:24;41.20;;;23.73;;
23088;SDS011;11713;48.506;8.966;2022-12-15T11:34:53;46.27;;;25.93;;
23088;SDS011;11713;48.506;8.966;2022-12-15T11:43:19;42.87;;;25.03;;
23088;SDS011;11713;48.506;8.966;2022-12-15T12:05:00;37.13;;;23.00;;
23088;SDS011;11713;48.506;8.966;2022-12-15T12:15:47;51.67;;;27.77;;
23088;SDS011;11713;48.506;8.966;2022-12-15T12:18:31;47.73;;;26.80;;
23088;SDS011;11713;48.506;8.966;2022-12-15T12:25:01;36.10;;;23.03;;
23088;SDS011;11713;48.506;8.966;2022-12-15T12:30:23;35.30;;;21.87;;
23088;SDS011;11713;48.506;8.966;2022-12-15T12:38:23;39.37;;;22.40;;
23088;SDS011;11713;48.506;8.966;2022-12-15T12:40:59;33.87;;;20.67;;
23088;SDS011;11713;48.506;8.966;2022-12-15T12:43:34;34.57;;;22.07;;
23088;SDS011;11713;48.506;8.966;2022-12-15T12:46:08;35.97;;;21.67;;
23088;SDS011;11713;48.506;8.966;2022-12-15T12:48:47;34.97;;;22.20;;
23088;SDS011;11713;48.506;8.966;2022-12-15T12:53:50;36.63;;;22.97;;
23088;SDS011;11713;48.506;8.966;2022-12-15T13:04:50;32.33;;;21.37;;
23088;SDS011;11713;48.506;8.966;2022-12-15T13:10:19;44.13;;;25.93;;
23088;SDS011;11713;48.506;8.966;2022-12-15T13:17:54;36.23;;;23.33;;
23088;SDS011;11713;48.506;8.966;2022-12-15T13:20:31;37.57;;;24.00;;
23088;SDS011;11713;48.506;8.966;2022-12-15T13:39:03;40.47;;;26.93;;
23088;SDS011;11713;48.506;8.966;2022-12-15T13:46:57;40.30;;;26.17;;
23088;SDS011;11713;48.506;8.966;2022-12-15T13:52:13;43.17;;;26.43;;
23088;SDS011;11713;48.506;8.966;2022-12-15T13:54:52;42.83;;;24.87;;
23088;SDS011;11713;48.506;8.966;2022-12-15T13:57:22;37.27;;;23.37;;
23088;SDS011;11713;48.506;8.966;2022-12-15T13:59:51;41.00;;;24.47;;
23088;SDS011;11713;48.506;8.966;2022-12-15T14:02:37;37.07;;;22.60;;
23088;SDS011;11713;48.506;8.966;2022-12-15T14:07:47;35.30;;;21.67;;
23088;SDS011;11713;48.506;8.966;2022-12-15T14:10:21;35.63;;;21.20;;
23088;SDS011;11713;48.506;8.966;2022-12-15T14:12:57;33.60;;;20.73;;
23088;SDS011;11713;48.506;8.966;2022-12-15T14:15:30;36.23;;;22.23;;
23088;SDS011;11713;48.506;8.966;2022-12-15T14:17:57;38.37;;;22.80;;
23088;SDS011;11713;48.506;8.966;2022-12-15T14:20:30;36.60;;;22.17;;
23088;SDS011;11713;48.506;8.966;2022-12-15T14:23:16;37.83;;;22.57;;
23088;SDS011;11713;48.506;8.966;2022-12-15T14:25:50;36.80;;;21.93;;
23088;SDS011;11713;48.506;8.966;2022-12-15T14:28:22;40.20;;;21.93;;
23088;SDS011;11713;48.506;8.966;2022-12-15T14:30:50;36.20;;;21.77;;
23088;SDS011;11713;48.506;8.966;2022-12-15T14:33:16;36.50;;;21.97;;
23088;SDS011;11713;48.506;8.966;2022-12-15T14:38:13;38.47;;;22.10;;
23088;SDS011;11713;48.506;8.966;2022-12-15T14:40:53;38.67;;;22.77;;
23088;SDS011;11713;48.506;8.966;2022-12-15T14:43:23;35.00;;;21.30;;
23088;SDS011;11713;48.506;8.966;2022-12-15T14:46:03;33.20;;;19.97;;
23088;SDS011;11713;48.506;8.966;2022-12-15T14:48:34;38.93;;;21.00;;
23088;SDS011;11713;48.506;8.966;2022-12-15T14:51:03;33.83;;;21.07;;
23088;SDS011;11713;48.506;8.966;2022-12-15T14:53:33;34.53;;;21.20;;
23088;SDS011;11713;48.506;8.966;2022-12-15T14:59:02;35.13;;;20.00;;
23088;SDS011;11713;48.506;8.966;2022-12-15T15:01:52;34.70;;;19.60;;
23088;SDS011;11713;48.506;8.966;2022-12-15T15:04:24;32.87;;;19.10;;
23088;SDS011;11713;48.506;8.966;2022-12-15T15:06:55;33.77;;;19.90;;
23088;SDS011;11713;48.506;8.966;2022-12-15T15:09:26;33.47;;;18.47;;
23088;SDS011;11713;48.506;8.966;2022-12-15T15:12:00;34.80;;;19.77;;
23088;SDS011;11713;48.506;8.966;2022-12-15T15:14:29;34.63;;;19.63;;
23088;SDS011;11713;48.506;8.966;2022-12-15T15:17:13;35.60;;;21.07;;
23088;SDS011;11713;48.506;8.966;2022-12-15T15:19:47;32.53;;;18.67;;
23088;SDS011;11713;48.506;8.966;2022-12-15T15:22:38;33.47;;;18.73;;
23088;SDS011;11713;48.506;8.966;2022-12-15T15:28:13;33.10;;;18.90;;
23088;SDS011;11713;48.506;8.966;2022-12-15T15:33:17;39.70;;;20.93;;
23088;SDS011;11713;48.506;8.966;2022-12-15T15:35:44;33.17;;;18.63;;
23088;SDS011;11713;48.506;8.966;2022-12-15T15:40:55;33.63;;;19.53;;
23088;SDS011;11713;48.506;8.966;2022-12-15T15:43:23;39.40;;;20.33;;
23088;SDS011;11713;48.506;8.966;2022-12-15T15:45:54;37.30;;;19.80;;
23088;SDS011;11713;48.506;8.966;2022-12-15T15:48:26;36.23;;;19.90;;
23088;SDS011;11713;48.506;8.966;2022-12-15T15:50:55;36.07;;;20.27;;
23088;SDS011;11713;48.506;8.966;2022-12-15T15:53:22;39.17;;;20.87;;
23088;SDS011;11713;48.506;8.966;2022-12-15T15:55:50;39.70;;;22.47;;
23088;SDS011;11713;48.506;8.966;2022-12-15T15:58:18;36.00;;;20.53;;
23088;SDS011;11713;48.506;8.966;2022-12-15T16:00:45;37.90;;;21.13;;
23088;SDS011;11713;48.506;8.966;2022-12-15T16:03:11;34.23;;;20.40;;
23088;SDS011;11713;48.506;8.966;2022-12-15T16:05:38;35.83;;;19.97;;
23088;SDS011;11713;48.506;8.966;2022-12-15T16:08:05;38.30;;;21.70;;
23088;SDS011;11713;48.506;8.966;2022-12-15T16:10:34;38.70;;;20.60;;
23088;SDS011;11713;48.506;8.966;2022-12-15T16:13:00;38.30;;;21.47;;
23088;SDS011;11713;48.506;8.966;2022-12-15T16:15:27;40.73;;;21.80;;
23088;SDS011;11713;48.506;8.966;2022-12-15T16:17:56;36.63;;;20.50;;
23088;SDS011;11713;48.506;8.966;2022-12-15T16:20:25;36.57;;;20.20;;
23088;SDS011;11713;48.506;8.966;2022-12-15T16:22:56;37.13;;;21.03;;
23088;SDS011;11713;48.506;8.966;2022-12-15T16:25:36;37.23;;;22.30;;
23088;SDS011;11713;48.506;8.966;2022-12-15T16:28:14;37.17;;;20.67;;
23088;SDS011;11713;48.506;8.966;2022-12-15T16:30:42;40.23;;;21.17;;
23088;SDS011;11713;48.506;8.966;2022-12-15T16:33:10;38.17;;;21.33;;
23088;SDS011;11713;48.506;8.966;2022-12-15T16:35:36;39.17;;;22.03;;
23088;SDS011;11713;48.506;8.966;2022-12-15T16:38:05;36.17;;;20.03;;
23088;SDS011;11713;48.506;8.966;2022-12-15T16:40:37;33.10;;;19.63;;
23088;SDS011;11713;48.506;8.966;2022-12-15T16:43:08;37.27;;;21.77;;
23088;SDS011;11713;48.506;8.966;2022-12-15T16:45:47;37.93;;;20.67;;
23088;SDS011;11713;48.506;8.966;2022-12-15T16:48:14;36.53;;;21.70;;
23088;SDS011;11713;48.506;8.966;2022-12-15T16:50:59;39.87;;;20.93;;
23088;SDS011;11713;48.506;8.966;2022-12-15T16:53:31;39.73;;;20.40;;
23088;SDS011;11713;48.506;8.966;2022-12-15T16:56:02;39.73;;;20.10;;
23088;SDS011;11713;48.506;8.966;2022-12-15T16:58:32;42.17;;;22.27;;
23088;SDS011;11713;48.506;8.966;2022-12-15T17:00:59;38.17;;;21.07;;
23088;SDS011;11713;48.506;8.966;2022-12-15T17:03:28;40.50;;;21.80;;
23088;SDS011;11713;48.506;8.966;2022-12-15T17:05:58;39.17;;;21.50;;
23088;SDS011;11713;48.506;8.966;2022-12-15T17:11:26;37.93;;;21.60;;
23088;SDS011;11713;48.506;8.966;2022-12-15T17:13:54;38.37;;;21.53;;
23088;SDS011;11713;48.506;8.966;2022-12-15T17:16:23;39.93;;;22.07;;
23088;SDS011;11713;48.506;8.966;2022-12-15T17:18:50;42.07;;;23.17;;
23088;SDS011;11713;48.506;8.966;2022-12-15T17:23:47;40.60;;;23.03;;
23088;SDS011;11713;48.506;8.966;2022-12-15T17:26:27;40.00;;;22.67;;
23088;SDS011;11713;48.506;8.966;2022-12-15T17:29:00;41.83;;;22.13;;
23088;SDS011;11713;48.506;8.966;2022-12-15T17:31:31;39.63;;;22.00;;
23088;SDS011;11713;48.506;8.966;2022-12-15T17:33:57;38.50;;;21.40;;
23088;SDS011;11713;48.506;8.966;2022-12-15T17:36:25;38.57;;;21.37;;
23088;SDS011;11713;48.506;8.966;2022-12-15T17:38:56;41.30;;;21.70;;
23088;SDS011;11713;48.506;8.966;2022-12-15T17:41:27;41.30;;;22.33;;
23088;SDS011;11713;48.506;8.966;2022-12-15T17:43:54;38.63;;;21.03;;
23088;SDS011;11713;48.506;8.966;2022-12-15T17:46:20;43.10;;;23.03;;
23088;SDS011;11713;48.506;8.966;2022-12-15T17:48:46;42.97;;;22.90;;
23088;SDS011;11713;48.506;8.966;2022-12-15T17:51:16;40.90;;;22.03;;
23088;SDS011;11713;48.506;8.966;2022-12-15T17:53:45;40.80;;;22.03;;
23088;SDS011;11713;48.506;8.966;2022-12-15T17:56:13;41.17;;;22.17;;
23088;SDS011;11713;48.506;8.966;2022-12-15T17:58:41;39.03;;;21.77;;
23088;SDS011;11713;48.506;8.966;2022-12-15T18:01:09;35.47;;;20.90;;
23088;SDS011;11713;48.506;8.966;2022-12-15T18:03:37;39.87;;;22.63;;
23088;SDS011;11713;48.506;8.966;2022-12-15T18:06:04;39.33;;;21.27;;
23088;SDS011;11713;48.506;8.966;2022-12-15T18:08:40;36.57;;;20.97;;
23088;SDS011;11713;48.506;8.966;2022-12-15T18:11:08;35.90;;;20.33;;
23088;SDS011;11713;48.506;8.966;2022-12-15T18:13:39;36.80;;;20.77;;
23088;SDS011;11713;48.506;8.966;2022-12-15T18:16:05;37.43;;;21.47;;
23088;SDS011;11713;48.506;8.966;2022-12-15T18:18:31;35.77;;;20.80;;
23088;SDS011;11713;48.506;8.966;2022-12-15T18:20:58;34.70;;;20.40;;
23088;SDS011;11713;48.506;8.966;2022-12-15T18:23:29;38.83;;;21.10;;
23088;SDS011;11713;48.506;8.966;2022-12-15T18:25:56;35.57;;;20.03;;
23088;SDS011;11713;48.506;8.966;2022-12-15T18:28:24;38.00;;;20.27;;
23088;SDS011;11713;48.506;8.966;2022-12-15T18:30:52;38.07;;;20.00;;
23088;SDS011;11713;48.506;8.966;2022-12-15T18:33:20;36.53;;;20.77;;